Aviation Digital Data Service (ADDS)

Output produced by METARs form (1942 UTC 19 August 2019)
found at http://www.aviationweather.gov/metar/data/
 
METAR text: ETNL 191920Z 21002KT 9999 FEW040 17/10 Q1017 BLU+
Conditions at: ETNL (LAAGE , DE) observed 1920 UTC 19 August 2019
Temperature: 17.0°C (63°F)
Dewpoint: 10.0°C (50°F) [RH = 63%]
Pressure (altimeter): 30.03 inches Hg (1017.0 mb)
Winds: from the SSW (210 degrees) at 2 MPH (2 knots; 1.0 m/s)
Visibility: 6 or more miles (10+ km)
Ceiling: at least 12,000 feet AGL
Clouds: few clouds at 4000 feet AGL
Weather: no significant weather observed at this time

METAR text: ETNL 191820Z 23004KT 9999 FEW040 19/10 Q1016 BLU+
Conditions at: ETNL (LAAGE , DE) observed 1820 UTC 19 August 2019
Temperature: 19.0°C (66°F)
Dewpoint: 10.0°C (50°F) [RH = 56%]
Pressure (altimeter): 30.00 inches Hg (1016.0 mb)
Winds: from the SW (230 degrees) at 5 MPH (4 knots; 2.1 m/s)
Visibility: 6 or more miles (10+ km)
Ceiling: at least 12,000 feet AGL
Clouds: few clouds at 4000 feet AGL
Weather: no significant weather observed at this time

METAR text: ETNL 191720Z 25006KT 9999 FEW040 21/09 Q1016 BLU+
Conditions at: ETNL (LAAGE , DE) observed 1720 UTC 19 August 2019
Temperature: 21.0°C (70°F)
Dewpoint: 9.0°C (48°F) [RH = 46%]
Pressure (altimeter): 30.00 inches Hg (1016.0 mb)
Winds: from the WSW (250 degrees) at 7 MPH (6 knots; 3.1 m/s)
Visibility: 6 or more miles (10+ km)
Ceiling: at least 12,000 feet AGL
Clouds: few clouds at 4000 feet AGL
Weather: no significant weather observed at this time

METAR text: ETNL 191620Z 24007KT 9999 FEW040 22/10 Q1015 BLU+
Conditions at: ETNL (LAAGE , DE) observed 1620 UTC 19 August 2019
Temperature: 22.0°C (72°F)
Dewpoint: 10.0°C (50°F) [RH = 46%]
Pressure (altimeter): 29.97 inches Hg (1015.0 mb)
Winds: from the WSW (240 degrees) at 8 MPH (7 knots; 3.6 m/s)
Visibility: 6 or more miles (10+ km)
Ceiling: at least 12,000 feet AGL
Clouds: few clouds at 4000 feet AGL
Weather: no significant weather observed at this time

METAR text: ETNL 191520Z 23010KT 9999 FEW042 21/10 Q1015 BLU+FCST CANCEL
Conditions at: ETNL (LAAGE , DE) observed 1520 UTC 19 August 2019
Temperature: 21.0°C (70°F)
Dewpoint: 10.0°C (50°F) [RH = 49%]
Pressure (altimeter): 29.97 inches Hg (1015.0 mb)
Winds: from the SW (230 degrees) at 12 MPH (10 knots; 5.1 m/s)
Visibility: 6 or more miles (10+ km)
Ceiling: at least 12,000 feet AGL
Clouds: few clouds at 4200 feet AGL
Weather: no significant weather observed at this time

METAR text: ETNL 191420Z 23013KT 9999 FEW042 21/10 Q1015 BLU+BLU+
Conditions at: ETNL (LAAGE , DE) observed 1420 UTC 19 August 2019
Temperature: 21.0°C (70°F)
Dewpoint: 10.0°C (50°F) [RH = 49%]
Pressure (altimeter): 29.97 inches Hg (1015.0 mb)
Winds: from the SW (230 degrees) at 15 MPH (13 knots; 6.7 m/s)
Visibility: 6 or more miles (10+ km)
Ceiling: at least 12,000 feet AGL
Clouds: few clouds at 4200 feet AGL
Weather: no significant weather observed at this time

METAR text: ETNL 191405Z 24013KT 9999 FEW042 21/11 Q1015 BLU+BLU+
Conditions at: ETNL (LAAGE , DE) observed 1405 UTC 19 August 2019
Temperature: 21.0°C (70°F)
Dewpoint: 11.0°C (52°F) [RH = 53%]
Pressure (altimeter): 29.97 inches Hg (1015.0 mb)
Winds: from the WSW (240 degrees) at 15 MPH (13 knots; 6.7 m/s)
Visibility: 6 or more miles (10+ km)
Ceiling: at least 12,000 feet AGL
Clouds: few clouds at 4200 feet AGL
Weather: no significant weather observed at this time

METAR text: ETNL 191320Z 25010KT 9999 FEW042 SCT080 21/12 Q1014 BLU+BLU+
Conditions at: ETNL (LAAGE , DE) observed 1320 UTC 19 August 2019
Temperature: 21.0°C (70°F)
Dewpoint: 12.0°C (54°F) [RH = 56%]
Pressure (altimeter): 29.94 inches Hg (1014.0 mb)
Winds: from the WSW (250 degrees) at 12 MPH (10 knots; 5.1 m/s)
Visibility: 6 or more miles (10+ km)
Ceiling: at least 12,000 feet AGL
Clouds: few clouds at 4200 feet AGL
scattered clouds at 8000 feet AGL
Weather: no significant weather observed at this time

METAR text: ETNL 191220Z 24011KT 9999 FEW042 21/11 Q1014 BLU+BLU+
Conditions at: ETNL (LAAGE , DE) observed 1220 UTC 19 August 2019
Temperature: 21.0°C (70°F)
Dewpoint: 11.0°C (52°F) [RH = 53%]
Pressure (altimeter): 29.94 inches Hg (1014.0 mb)
Winds: from the WSW (240 degrees) at 13 MPH (11 knots; 5.7 m/s)
Visibility: 6 or more miles (10+ km)
Ceiling: at least 12,000 feet AGL
Clouds: few clouds at 4200 feet AGL
Weather: no significant weather observed at this time

METAR text: ETNL 191120Z 22011KT 9999 FEW040 21/10 Q1013 BLU+BLU+
Conditions at: ETNL (LAAGE , DE) observed 1120 UTC 19 August 2019
Temperature: 21.0°C (70°F)
Dewpoint: 10.0°C (50°F) [RH = 49%]
Pressure (altimeter): 29.91 inches Hg (1013.0 mb)
Winds: from the SW (220 degrees) at 13 MPH (11 knots; 5.7 m/s)
Visibility: 6 or more miles (10+ km)
Ceiling: at least 12,000 feet AGL
Clouds: few clouds at 4000 feet AGL
Weather: no significant weather observed at this time

METAR text: ETNL 191020Z 23011KT 9999 FEW036 20/11 Q1013 BLU+BLU+
Conditions at: ETNL (LAAGE , DE) observed 1020 UTC 19 August 2019
Temperature: 20.0°C (68°F)
Dewpoint: 11.0°C (52°F) [RH = 56%]
Pressure (altimeter): 29.91 inches Hg (1013.0 mb)
Winds: from the SW (230 degrees) at 13 MPH (11 knots; 5.7 m/s)
Visibility: 6 or more miles (10+ km)
Ceiling: at least 12,000 feet AGL
Clouds: few clouds at 3600 feet AGL
Weather: no significant weather observed at this time

METAR text: ETNL 190920Z 24010KT 9999 FEW020 18/13 Q1013 BLU+BLU+
Conditions at: ETNL (LAAGE , DE) observed 0920 UTC 19 August 2019
Temperature: 18.0°C (64°F)
Dewpoint: 13.0°C (55°F) [RH = 73%]
Pressure (altimeter): 29.91 inches Hg (1013.0 mb)
Winds: from the WSW (240 degrees) at 12 MPH (10 knots; 5.1 m/s)
Visibility: 6 or more miles (10+ km)
Ceiling: at least 12,000 feet AGL
Clouds: few clouds at 2000 feet AGL
Weather: no significant weather observed at this time

METAR text: ETNL 190914Z 25010KT 9999 FEW018 18/13 Q1013 BLU+BLU+
Conditions at: ETNL (LAAGE , DE) observed 0914 UTC 19 August 2019
Temperature: 18.0°C (64°F)
Dewpoint: 13.0°C (55°F) [RH = 73%]
Pressure (altimeter): 29.91 inches Hg (1013.0 mb)
Winds: from the WSW (250 degrees) at 12 MPH (10 knots; 5.1 m/s)
Visibility: 6 or more miles (10+ km)
Ceiling: at least 12,000 feet AGL
Clouds: few clouds at 1800 feet AGL
Weather: no significant weather observed at this time

METAR text: ETNL 190820Z 24006KT 9999 FEW010 SCT015 17/15 Q1012 BLU+BLU+
Conditions at: ETNL (LAAGE , DE) observed 0820 UTC 19 August 2019
Temperature: 17.0°C (63°F)
Dewpoint: 15.0°C (59°F) [RH = 88%]
Pressure (altimeter): 29.88 inches Hg (1012.0 mb)
Winds: from the WSW (240 degrees) at 7 MPH (6 knots; 3.1 m/s)
Visibility: 6 or more miles (10+ km)
Ceiling: at least 12,000 feet AGL
Clouds: few clouds at 1000 feet AGL
scattered clouds at 1500 feet AGL
Weather: no significant weather observed at this time

METAR text: ETNL 190720Z 23006KT 9000 BKN008 16/15 Q1012 GRN GRN BECMG BLU+
Conditions at: ETNL (LAAGE , DE) observed 0720 UTC 19 August 2019
Temperature: 16.0°C (61°F)
Dewpoint: 15.0°C (59°F) [RH = 94%]
Pressure (altimeter): 29.88 inches Hg (1012.0 mb)
Winds: from the SW (230 degrees) at 7 MPH (6 knots; 3.1 m/s)
Visibility: 6 miles ( 9 km)
Ceiling: 800 feet AGL
Clouds: broken clouds at 800 feet AGL
Weather: no significant weather observed at this time

METAR text: ETNL 190642Z 22005KT 7000 BKN005 16/15 Q1012 YLO BLU+ TEMPO YLO
Conditions at: ETNL (LAAGE , DE) observed 0642 UTC 19 August 2019
Temperature: 16.0°C (61°F)
Dewpoint: 15.0°C (59°F) [RH = 94%]
Pressure (altimeter): 29.88 inches Hg (1012.0 mb)
Winds: from the SW (220 degrees) at 6 MPH (5 knots; 2.6 m/s)
Visibility: 4 miles ( 7 km)
Ceiling: 500 feet AGL
Clouds: broken clouds at 500 feet AGL
Weather: no significant weather observed at this time

METAR text: ETNL 190620Z 22007KT 5000 BR BKN004 15/15 Q1012 YLO BLU+ TEMPO YLO
Conditions at: ETNL (LAAGE , DE) observed 0620 UTC 19 August 2019
Temperature: 15.0°C (59°F)
Dewpoint: 15.0°C (59°F) [RH = 100%]
Pressure (altimeter): 29.88 inches Hg (1012.0 mb)
Winds: from the SW (220 degrees) at 8 MPH (7 knots; 3.6 m/s)
Visibility: 3 miles ( 5 km)
Ceiling: 400 feet AGL
Clouds: broken clouds at 400 feet AGL
Weather: BR  (mist)

METAR text: ETNL 190539Z 20005KT 5000 BR BKN003 15/14 Q1012 YLO BLU+ TEMPO YLO
Conditions at: ETNL (LAAGE , DE) observed 0539 UTC 19 August 2019
Temperature: 15.0°C (59°F)
Dewpoint: 14.0°C (57°F) [RH = 94%]
Pressure (altimeter): 29.88 inches Hg (1012.0 mb)
Winds: from the SSW (200 degrees) at 6 MPH (5 knots; 2.6 m/s)
Visibility: 3 miles ( 5 km)
Ceiling: 300 feet AGL
Clouds: broken clouds at 300 feet AGL
Weather: BR  (mist)

METAR text: ETNL 190520Z 19006KT 5000 BR BKN003 15/14 Q1011 YLO BLU+ TEMPO YLO
Conditions at: ETNL (LAAGE , DE) observed 0520 UTC 19 August 2019
Temperature: 15.0°C (59°F)
Dewpoint: 14.0°C (57°F) [RH = 94%]
Pressure (altimeter): 29.85 inches Hg (1011.0 mb)
Winds: from the S (190 degrees) at 7 MPH (6 knots; 3.1 m/s)
Visibility: 3 miles ( 5 km)
Ceiling: 300 feet AGL
Clouds: broken clouds at 300 feet AGL
Weather: BR  (mist)

METAR text: ETNL 190434Z 22003KT 5000 BR BKN004 BKN240 15/14 Q1011 YLO BLU+ TEMPO YLO
Conditions at: ETNL (LAAGE , DE) observed 0434 UTC 19 August 2019
Temperature: 15.0°C (59°F)
Dewpoint: 14.0°C (57°F) [RH = 94%]
Pressure (altimeter): 29.85 inches Hg (1011.0 mb)
Winds: from the SW (220 degrees) at 3 MPH (3 knots; 1.5 m/s)
Visibility: 3 miles ( 5 km)
Ceiling: 400 feet AGL
Clouds: broken clouds at 400 feet AGL
broken clouds at 24000 feet AGL
Weather: BR  (mist)

METAR text: ETNL 190420Z 20003KT 5000 BR BKN005 BKN240 14/14 Q1011 YLO BLU+ TEMPO YLO
Conditions at: ETNL (LAAGE , DE) observed 0420 UTC 19 August 2019
Temperature: 14.0°C (57°F)
Dewpoint: 14.0°C (57°F) [RH = 100%]
Pressure (altimeter): 29.85 inches Hg (1011.0 mb)
Winds: from the SSW (200 degrees) at 3 MPH (3 knots; 1.5 m/s)
Visibility: 3 miles ( 5 km)
Ceiling: 500 feet AGL
Clouds: broken clouds at 500 feet AGL
broken clouds at 24000 feet AGL
Weather: BR  (mist)

METAR text: ETNL 190402Z 19003KT 6000 SCT004 BKN240 14/14 Q1011 WHT
Conditions at: ETNL (LAAGE , DE) observed 0402 UTC 19 August 2019
Temperature: 14.0°C (57°F)
Dewpoint: 14.0°C (57°F) [RH = 100%]
Pressure (altimeter): 29.85 inches Hg (1011.0 mb)
Winds: from the S (190 degrees) at 3 MPH (3 knots; 1.5 m/s)
Visibility: 4 miles ( 6 km)
Ceiling: 24000 feet AGL
Clouds: scattered clouds at 400 feet AGL
broken clouds at 24000 feet AGL
Weather: no significant weather observed at this time

METAR text: ETNL 190329Z 21005KT 6000 BKN004 BKN230 14/14 Q1011 YLO
Conditions at: ETNL (LAAGE , DE) observed 0329 UTC 19 August 2019
Temperature: 14.0°C (57°F)
Dewpoint: 14.0°C (57°F) [RH = 100%]
Pressure (altimeter): 29.85 inches Hg (1011.0 mb)
Winds: from the SSW (210 degrees) at 6 MPH (5 knots; 2.6 m/s)
Visibility: 4 miles ( 6 km)
Ceiling: 400 feet AGL
Clouds: broken clouds at 400 feet AGL
broken clouds at 23000 feet AGL
Weather: no significant weather observed at this time

METAR text: ETNL 190320Z 21004KT 6000 SCT004 BKN230 14/14 Q1011 WHT
Conditions at: ETNL (LAAGE , DE) observed 0320 UTC 19 August 2019
Temperature: 14.0°C (57°F)
Dewpoint: 14.0°C (57°F) [RH = 100%]
Pressure (altimeter): 29.85 inches Hg (1011.0 mb)
Winds: from the SSW (210 degrees) at 5 MPH (4 knots; 2.1 m/s)
Visibility: 4 miles ( 6 km)
Ceiling: 23000 feet AGL
Clouds: scattered clouds at 400 feet AGL
broken clouds at 23000 feet AGL
Weather: no significant weather observed at this time

METAR text: ETNL 190220Z 20004KT 9999 BKN230 14/13 Q1010 BLU+
Conditions at: ETNL (LAAGE , DE) observed 0220 UTC 19 August 2019
Temperature: 14.0°C (57°F)
Dewpoint: 13.0°C (55°F) [RH = 94%]
Pressure (altimeter): 29.82 inches Hg (1010.0 mb)
Winds: from the SSW (200 degrees) at 5 MPH (4 knots; 2.1 m/s)
Visibility: 6 or more miles (10+ km)
Ceiling: 23000 feet AGL
Clouds: broken clouds at 23000 feet AGL
Weather: no significant weather observed at this time

METAR text: ETNL 190120Z 21005KT 9999 BKN240 14/13 Q1010 BLU+
Conditions at: ETNL (LAAGE , DE) observed 0120 UTC 19 August 2019
Temperature: 14.0°C (57°F)
Dewpoint: 13.0°C (55°F) [RH = 94%]
Pressure (altimeter): 29.82 inches Hg (1010.0 mb)
Winds: from the SSW (210 degrees) at 6 MPH (5 knots; 2.6 m/s)
Visibility: 6 or more miles (10+ km)
Ceiling: 24000 feet AGL
Clouds: broken clouds at 24000 feet AGL
Weather: no significant weather observed at this time

METAR text: ETNL 190020Z 23002KT 9999 SCT270 14/13 Q1009 BLU+
Conditions at: ETNL (LAAGE , DE) observed 0020 UTC 19 August 2019
Temperature: 14.0°C (57°F)
Dewpoint: 13.0°C (55°F) [RH = 94%]
Pressure (altimeter): 29.79 inches Hg (1009.0 mb)
Winds: from the SW (230 degrees) at 2 MPH (2 knots; 1.0 m/s)
Visibility: 6 or more miles (10+ km)
Ceiling: at least 12,000 feet AGL
Clouds: scattered clouds at 27000 feet AGL
Weather: no significant weather observed at this time

METAR text: ETNL 182320Z 23003KT 9999 BKN280 15/14 Q1009 BLU+
Conditions at: ETNL (LAAGE , DE) observed 2320 UTC 18 August 2019
Temperature: 15.0°C (59°F)
Dewpoint: 14.0°C (57°F) [RH = 94%]
Pressure (altimeter): 29.79 inches Hg (1009.0 mb)
Winds: from the SW (230 degrees) at 3 MPH (3 knots; 1.5 m/s)
Visibility: 6 or more miles (10+ km)
Ceiling: 28000 feet AGL
Clouds: broken clouds at 28000 feet AGL
Weather: no significant weather observed at this time

METAR text: ETNL 182220Z 24005KT 9999 BKN270 15/15 Q1008 BLU+
Conditions at: ETNL (LAAGE , DE) observed 2220 UTC 18 August 2019
Temperature: 15.0°C (59°F)
Dewpoint: 15.0°C (59°F) [RH = 100%]
Pressure (altimeter): 29.76 inches Hg (1008.0 mb)
Winds: from the WSW (240 degrees) at 6 MPH (5 knots; 2.6 m/s)
Visibility: 6 or more miles (10+ km)
Ceiling: 27000 feet AGL
Clouds: broken clouds at 27000 feet AGL
Weather: no significant weather observed at this time

METAR text: ETNL 182120Z 23005KT 9999 FEW040 BKN270 15/14 Q1008 BLU+
Conditions at: ETNL (LAAGE , DE) observed 2120 UTC 18 August 2019
Temperature: 15.0°C (59°F)
Dewpoint: 14.0°C (57°F) [RH = 94%]
Pressure (altimeter): 29.76 inches Hg (1008.0 mb)
Winds: from the SW (230 degrees) at 6 MPH (5 knots; 2.6 m/s)
Visibility: 6 or more miles (10+ km)
Ceiling: 27000 feet AGL
Clouds: few clouds at 4000 feet AGL
broken clouds at 27000 feet AGL
Weather: no significant weather observed at this time

METAR text: ETNL 182020Z 24003KT 9999 SCT040 BKN240 16/15 Q1007 BLU+
Conditions at: ETNL (LAAGE , DE) observed 2020 UTC 18 August 2019
Temperature: 16.0°C (61°F)
Dewpoint: 15.0°C (59°F) [RH = 94%]
Pressure (altimeter): 29.73 inches Hg (1007.0 mb)
Winds: from the WSW (240 degrees) at 3 MPH (3 knots; 1.5 m/s)
Visibility: 6 or more miles (10+ km)
Ceiling: 24000 feet AGL
Clouds: scattered clouds at 4000 feet AGL
broken clouds at 24000 feet AGL
Weather: no significant weather observed at this time

METAR text: ETNL 181920Z 27006KT 9999 FEW010 BKN030 17/16 Q1006 BLU
Conditions at: ETNL (LAAGE , DE) observed 1920 UTC 18 August 2019
Temperature: 17.0°C (63°F)
Dewpoint: 16.0°C (61°F) [RH = 94%]
Pressure (altimeter): 29.70 inches Hg (1006.0 mb)
Winds: from the W (270 degrees) at 7 MPH (6 knots; 3.1 m/s)
Visibility: 6 or more miles (10+ km)
Ceiling: 3000 feet AGL
Clouds: few clouds at 1000 feet AGL
broken clouds at 3000 feet AGL
Weather: no significant weather observed at this time

METAR text: ETNL 181820Z 27008KT 9999 FEW004 BKN030 17/16 Q1005 BLU
Conditions at: ETNL (LAAGE , DE) observed 1820 UTC 18 August 2019
Temperature: 17.0°C (63°F)
Dewpoint: 16.0°C (61°F) [RH = 94%]
Pressure (altimeter): 29.68 inches Hg (1005.0 mb)
Winds: from the W (270 degrees) at 9 MPH (8 knots; 4.1 m/s)
Visibility: 6 or more miles (10+ km)
Ceiling: 3000 feet AGL
Clouds: few clouds at 400 feet AGL
broken clouds at 3000 feet AGL
Weather: no significant weather observed at this time

METAR text: ETNL 181758Z 27009KT 9999 FEW004 SCT013 BKN029 18/17 Q1005 BLU
Conditions at: ETNL (LAAGE , DE) observed 1758 UTC 18 August 2019
Temperature: 18.0°C (64°F)
Dewpoint: 17.0°C (63°F) [RH = 94%]
Pressure (altimeter): 29.68 inches Hg (1005.0 mb)
Winds: from the W (270 degrees) at 10 MPH (9 knots; 4.6 m/s)
Visibility: 6 or more miles (10+ km)
Ceiling: 2900 feet AGL
Clouds: few clouds at 400 feet AGL
scattered clouds at 1300 feet AGL
broken clouds at 2900 feet AGL
Weather: no significant weather observed at this time

METAR text: ETNL 181746Z 28010KT 8000 FEW004 BKN008 BKN013 18/17 Q1005 GRN
Conditions at: ETNL (LAAGE , DE) observed 1746 UTC 18 August 2019
Temperature: 18.0°C (64°F)
Dewpoint: 17.0°C (63°F) [RH = 94%]
Pressure (altimeter): 29.68 inches Hg (1005.0 mb)
Winds: from the W (280 degrees) at 12 MPH (10 knots; 5.1 m/s)
Visibility: 5 miles ( 8 km)
Ceiling: 800 feet AGL
Clouds: few clouds at 400 feet AGL
broken clouds at 800 feet AGL
broken clouds at 1300 feet AGL
Weather: no significant weather observed at this time

METAR text: ETNL 181735Z 27009KT 6000 -DZRA SCT003 BKN008 18/17 Q1005 GRN
Conditions at: ETNL (LAAGE , DE) observed 1735 UTC 18 August 2019
Temperature: 18.0°C (64°F)
Dewpoint: 17.0°C (63°F) [RH = 94%]
Pressure (altimeter): 29.68 inches Hg (1005.0 mb)
Winds: from the W (270 degrees) at 10 MPH (9 knots; 4.6 m/s)
Visibility: 4 miles ( 6 km)
Ceiling: 800 feet AGL
Clouds: scattered clouds at 300 feet AGL
broken clouds at 800 feet AGL
Weather: -DZ -RA  (light drizzle, light rain)

METAR text: ETNL 181728Z 27007KT 8000 SCT003 BKN008 18/18 Q1005 GRN
Conditions at: ETNL (LAAGE , DE) observed 1728 UTC 18 August 2019
Temperature: 18.0°C (64°F)
Dewpoint: 18.0°C (64°F) [RH = 100%]
Pressure (altimeter): 29.68 inches Hg (1005.0 mb)
Winds: from the W (270 degrees) at 8 MPH (7 knots; 3.6 m/s)
Visibility: 5 miles ( 8 km)
Ceiling: 800 feet AGL
Clouds: scattered clouds at 300 feet AGL
broken clouds at 800 feet AGL
Weather: no significant weather observed at this time

METAR text: ETNL 181720Z 26008KT 5000 BR SCT005 BKN008 18/18 Q1005 GRN
Conditions at: ETNL (LAAGE , DE) observed 1720 UTC 18 August 2019
Temperature: 18.0°C (64°F)
Dewpoint: 18.0°C (64°F) [RH = 100%]
Pressure (altimeter): 29.68 inches Hg (1005.0 mb)
Winds: from the W (260 degrees) at 9 MPH (8 knots; 4.1 m/s)
Visibility: 3 miles ( 5 km)
Ceiling: 800 feet AGL
Clouds: scattered clouds at 500 feet AGL
broken clouds at 800 feet AGL
Weather: BR  (mist)

METAR text: ETNL 181711Z 26009KT 3700 -RADZ BR SCT005 BKN008 18/18 Q1005 GRN
Conditions at: ETNL (LAAGE , DE) observed 1711 UTC 18 August 2019
Temperature: 18.0°C (64°F)
Dewpoint: 18.0°C (64°F) [RH = 100%]
Pressure (altimeter): 29.68 inches Hg (1005.0 mb)
Winds: from the W (260 degrees) at 10 MPH (9 knots; 4.6 m/s)
Visibility: 2.30 miles (3.70 km)
Ceiling: 800 feet AGL
Clouds: scattered clouds at 500 feet AGL
broken clouds at 800 feet AGL
Weather: -RA -DZ BR  (light rain, light drizzle, mist)

METAR text: ETNL 181644Z 26006KT 2500 RA BR SCT003 BKN008 19/18 Q1004 YLO
Conditions at: ETNL (LAAGE , DE) observed 1644 UTC 18 August 2019
Temperature: 19.0°C (66°F)
Dewpoint: 18.0°C (64°F) [RH = 94%]
Pressure (altimeter): 29.65 inches Hg (1004.0 mb)
Winds: from the W (260 degrees) at 7 MPH (6 knots; 3.1 m/s)
Visibility: 1.55 miles (2.49 km)
Ceiling: 800 feet AGL
Clouds: scattered clouds at 300 feet AGL
broken clouds at 800 feet AGL
Weather: RA BR  (moderate rain, mist)

METAR text: ETNL 181640Z 26005KT 4000 RA BR SCT003 BKN007 19/18 Q1004 GRN
Conditions at: ETNL (LAAGE , DE) observed 1640 UTC 18 August 2019
Temperature: 19.0°C (66°F)
Dewpoint: 18.0°C (64°F) [RH = 94%]
Pressure (altimeter): 29.65 inches Hg (1004.0 mb)
Winds: from the W (260 degrees) at 6 MPH (5 knots; 2.6 m/s)
Visibility: 2.49 miles (4.01 km)
Ceiling: 700 feet AGL
Clouds: scattered clouds at 300 feet AGL
broken clouds at 700 feet AGL
Weather: RA BR  (moderate rain, mist)

METAR text: ETNL 181620Z 26006KT 9999 BKN010 19/18 Q1004 GRN
Conditions at: ETNL (LAAGE , DE) observed 1620 UTC 18 August 2019
Temperature: 19.0°C (66°F)
Dewpoint: 18.0°C (64°F) [RH = 94%]
Pressure (altimeter): 29.65 inches Hg (1004.0 mb)
Winds: from the W (260 degrees) at 7 MPH (6 knots; 3.1 m/s)
Visibility: 6 or more miles (10+ km)
Ceiling: 1000 feet AGL
Clouds: broken clouds at 1000 feet AGL
Weather: no significant weather observed at this time

METAR text: ETNL 181603Z 24005KT 9999 SCT007 BKN019 BKN049 19/18 Q1004 WHT
Conditions at: ETNL (LAAGE , DE) observed 1603 UTC 18 August 2019
Temperature: 19.0°C (66°F)
Dewpoint: 18.0°C (64°F) [RH = 94%]
Pressure (altimeter): 29.65 inches Hg (1004.0 mb)
Winds: from the WSW (240 degrees) at 6 MPH (5 knots; 2.6 m/s)
Visibility: 6 or more miles (10+ km)
Ceiling: 1900 feet AGL
Clouds: scattered clouds at 700 feet AGL
broken clouds at 1900 feet AGL
broken clouds at 4900 feet AGL
Weather: no significant weather observed at this time

METAR text: ETNL 181541Z 24005KT 9999 -RA BKN006 BKN011 19/18 Q1004 YLO
Conditions at: ETNL (LAAGE , DE) observed 1541 UTC 18 August 2019
Temperature: 19.0°C (66°F)
Dewpoint: 18.0°C (64°F) [RH = 94%]
Pressure (altimeter): 29.65 inches Hg (1004.0 mb)
Winds: from the WSW (240 degrees) at 6 MPH (5 knots; 2.6 m/s)
Visibility: 6 or more miles (10+ km)
Ceiling: 600 feet AGL
Clouds: broken clouds at 600 feet AGL
broken clouds at 1100 feet AGL
Weather: -RA  (light rain)

METAR text: ETNL 181533Z 25005KT 9999 SCT009 BKN032 19/18 Q1004 BLU
Conditions at: ETNL (LAAGE , DE) observed 1533 UTC 18 August 2019
Temperature: 19.0°C (66°F)
Dewpoint: 18.0°C (64°F) [RH = 94%]
Pressure (altimeter): 29.65 inches Hg (1004.0 mb)
Winds: from the WSW (250 degrees) at 6 MPH (5 knots; 2.6 m/s)
Visibility: 6 or more miles (10+ km)
Ceiling: 3200 feet AGL
Clouds: scattered clouds at 900 feet AGL
broken clouds at 3200 feet AGL
Weather: no significant weather observed at this time

METAR text: ETNL 181520Z 26009KT 9999 -RA SCT007 BKN010 BKN025 19/18 Q1004 RERA GRN
Conditions at: ETNL (LAAGE , DE) observed 1520 UTC 18 August 2019
Temperature: 19.0°C (66°F)
Dewpoint: 18.0°C (64°F) [RH = 94%]
Pressure (altimeter): 29.65 inches Hg (1004.0 mb)
Winds: from the W (260 degrees) at 10 MPH (9 knots; 4.6 m/s)
Visibility: 6 or more miles (10+ km)
Ceiling: 1000 feet AGL
Clouds: scattered clouds at 700 feet AGL
broken clouds at 1000 feet AGL
broken clouds at 2500 feet AGL
Weather: -RA  (light rain)

METAR text: ETNL 181516Z 25008KT 5000 -RA BR BKN003 BKN007 19/18 Q1004 YLO
Conditions at: ETNL (LAAGE , DE) observed 1516 UTC 18 August 2019
Temperature: 19.0°C (66°F)
Dewpoint: 18.0°C (64°F) [RH = 94%]
Pressure (altimeter): 29.65 inches Hg (1004.0 mb)
Winds: from the WSW (250 degrees) at 9 MPH (8 knots; 4.1 m/s)
Visibility: 3 miles ( 5 km)
Ceiling: 300 feet AGL
Clouds: broken clouds at 300 feet AGL
broken clouds at 700 feet AGL
Weather: -RA BR  (light rain, mist)

METAR text: ETNL 181457Z 23004KT 1800 R27/7000U RA BR BKN019 21/18 Q1004 YLO
Conditions at: ETNL (LAAGE , DE) observed 1457 UTC 18 August 2019
Temperature: 21.0°C (70°F)
Dewpoint: 18.0°C (64°F) [RH = 83%]
Pressure (altimeter): 29.65 inches Hg (1004.0 mb)
Winds: from the SW (230 degrees) at 5 MPH (4 knots; 2.1 m/s)
Visibility: 1.12 miles (1.80 km)
Ceiling: 1900 feet AGL
Clouds: broken clouds at 1900 feet AGL
Weather: RA BR  (moderate rain, mist)

METAR text: ETNL 181420Z 23005KT 9999 SCT020 BKN043 21/18 Q1004 BLU
Conditions at: ETNL (LAAGE , DE) observed 1420 UTC 18 August 2019
Temperature: 21.0°C (70°F)
Dewpoint: 18.0°C (64°F) [RH = 83%]
Pressure (altimeter): 29.65 inches Hg (1004.0 mb)
Winds: from the SW (230 degrees) at 6 MPH (5 knots; 2.6 m/s)
Visibility: 6 or more miles (10+ km)
Ceiling: 4300 feet AGL
Clouds: scattered clouds at 2000 feet AGL
broken clouds at 4300 feet AGL
Weather: no significant weather observed at this time

METAR text: ETNL 181320Z 20004KT 9999 SCT027 BKN048 20/18 Q1004 BLU
Conditions at: ETNL (LAAGE , DE) observed 1320 UTC 18 August 2019
Temperature: 20.0°C (68°F)
Dewpoint: 18.0°C (64°F) [RH = 88%]
Pressure (altimeter): 29.65 inches Hg (1004.0 mb)
Winds: from the SSW (200 degrees) at 5 MPH (4 knots; 2.1 m/s)
Visibility: 6 or more miles (10+ km)
Ceiling: 4800 feet AGL
Clouds: scattered clouds at 2700 feet AGL
broken clouds at 4800 feet AGL
Weather: no significant weather observed at this time

METAR text: ETNL 181220Z 18004KT 9999 SCT013 BKN050 21/18 Q1004 BLU
Conditions at: ETNL (LAAGE , DE) observed 1220 UTC 18 August 2019
Temperature: 21.0°C (70°F)
Dewpoint: 18.0°C (64°F) [RH = 83%]
Pressure (altimeter): 29.65 inches Hg (1004.0 mb)
Winds: from the S (180 degrees) at 5 MPH (4 knots; 2.1 m/s)
Visibility: 6 or more miles (10+ km)
Ceiling: 5000 feet AGL
Clouds: scattered clouds at 1300 feet AGL
broken clouds at 5000 feet AGL
Weather: no significant weather observed at this time

METAR text: ETNL 181120Z 19006KT 9999 FEW008 BKN019 20/17 Q1005 WHT
Conditions at: ETNL (LAAGE , DE) observed 1120 UTC 18 August 2019
Temperature: 20.0°C (68°F)
Dewpoint: 17.0°C (63°F) [RH = 83%]
Pressure (altimeter): 29.68 inches Hg (1005.0 mb)
Winds: from the S (190 degrees) at 7 MPH (6 knots; 3.1 m/s)
Visibility: 6 or more miles (10+ km)
Ceiling: 1900 feet AGL
Clouds: few clouds at 800 feet AGL
broken clouds at 1900 feet AGL
Weather: no significant weather observed at this time

METAR text: ETNL 181046Z 18005KT 9999 SCT006 BKN015 BKN024 19/18 Q1005 WHT
Conditions at: ETNL (LAAGE , DE) observed 1046 UTC 18 August 2019
Temperature: 19.0°C (66°F)
Dewpoint: 18.0°C (64°F) [RH = 94%]
Pressure (altimeter): 29.68 inches Hg (1005.0 mb)
Winds: from the S (180 degrees) at 6 MPH (5 knots; 2.6 m/s)
Visibility: 6 or more miles (10+ km)
Ceiling: 1500 feet AGL
Clouds: scattered clouds at 600 feet AGL
broken clouds at 1500 feet AGL
broken clouds at 2400 feet AGL
Weather: no significant weather observed at this time

METAR text: ETNL 181020Z 20004KT 9999 BKN006 19/18 Q1005 YLO
Conditions at: ETNL (LAAGE , DE) observed 1020 UTC 18 August 2019
Temperature: 19.0°C (66°F)
Dewpoint: 18.0°C (64°F) [RH = 94%]
Pressure (altimeter): 29.68 inches Hg (1005.0 mb)
Winds: from the SSW (200 degrees) at 5 MPH (4 knots; 2.1 m/s)
Visibility: 6 or more miles (10+ km)
Ceiling: 600 feet AGL
Clouds: broken clouds at 600 feet AGL
Weather: no significant weather observed at this time

METAR text: ETNL 181007Z 19004KT 9999 SCT005 BKN010 19/18 Q1005 GRN
Conditions at: ETNL (LAAGE , DE) observed 1007 UTC 18 August 2019
Temperature: 19.0°C (66°F)
Dewpoint: 18.0°C (64°F) [RH = 94%]
Pressure (altimeter): 29.68 inches Hg (1005.0 mb)
Winds: from the S (190 degrees) at 5 MPH (4 knots; 2.1 m/s)
Visibility: 6 or more miles (10+ km)
Ceiling: 1000 feet AGL
Clouds: scattered clouds at 500 feet AGL
broken clouds at 1000 feet AGL
Weather: no significant weather observed at this time

METAR text: ETNL 180939Z 19004KT 9999 -RA SCT004 BKN005 18/18 Q1005 YLO
Conditions at: ETNL (LAAGE , DE) observed 0939 UTC 18 August 2019
Temperature: 18.0°C (64°F)
Dewpoint: 18.0°C (64°F) [RH = 100%]
Pressure (altimeter): 29.68 inches Hg (1005.0 mb)
Winds: from the S (190 degrees) at 5 MPH (4 knots; 2.1 m/s)
Visibility: 6 or more miles (10+ km)
Ceiling: 500 feet AGL
Clouds: scattered clouds at 400 feet AGL
broken clouds at 500 feet AGL
Weather: -RA  (light rain)

METAR text: ETNL 180920Z 20003KT 9999 BKN009 18/17 Q1005 RERA GRN
Conditions at: ETNL (LAAGE , DE) observed 0920 UTC 18 August 2019
Temperature: 18.0°C (64°F)
Dewpoint: 17.0°C (63°F) [RH = 94%]
Pressure (altimeter): 29.68 inches Hg (1005.0 mb)
Winds: from the SSW (200 degrees) at 3 MPH (3 knots; 1.5 m/s)
Visibility: 6 or more miles (10+ km)
Ceiling: 900 feet AGL
Clouds: broken clouds at 900 feet AGL
Weather: no significant weather observed at this time

METAR text: ETNL 180836Z 21004KT 9000 RA SCT004 BKN007 BKN037 18/17 Q1005 GRN
Conditions at: ETNL (LAAGE , DE) observed 0836 UTC 18 August 2019
Temperature: 18.0°C (64°F)
Dewpoint: 17.0°C (63°F) [RH = 94%]
Pressure (altimeter): 29.68 inches Hg (1005.0 mb)
Winds: from the SSW (210 degrees) at 5 MPH (4 knots; 2.1 m/s)
Visibility: 6 miles ( 9 km)
Ceiling: 700 feet AGL
Clouds: scattered clouds at 400 feet AGL
broken clouds at 700 feet AGL
broken clouds at 3700 feet AGL
Weather: RA  (moderate rain)

METAR text: ETNL 180829Z 19004KT 9999 -RA SCT004 BKN007 BKN026 18/17 Q1005 GRN
Conditions at: ETNL (LAAGE , DE) observed 0829 UTC 18 August 2019
Temperature: 18.0°C (64°F)
Dewpoint: 17.0°C (63°F) [RH = 94%]
Pressure (altimeter): 29.68 inches Hg (1005.0 mb)
Winds: from the S (190 degrees) at 5 MPH (4 knots; 2.1 m/s)
Visibility: 6 or more miles (10+ km)
Ceiling: 700 feet AGL
Clouds: scattered clouds at 400 feet AGL
broken clouds at 700 feet AGL
broken clouds at 2600 feet AGL
Weather: -RA  (light rain)

METAR text: ETNL 180820Z 18005KT 7000 -RA BKN004 BKN025 18/17 Q1005 YLO
Conditions at: ETNL (LAAGE , DE) observed 0820 UTC 18 August 2019
Temperature: 18.0°C (64°F)
Dewpoint: 17.0°C (63°F) [RH = 94%]
Pressure (altimeter): 29.68 inches Hg (1005.0 mb)
Winds: from the S (180 degrees) at 6 MPH (5 knots; 2.6 m/s)
Visibility: 4 miles ( 7 km)
Ceiling: 400 feet AGL
Clouds: broken clouds at 400 feet AGL
broken clouds at 2500 feet AGL
Weather: -RA  (light rain)

METAR text: ETNL 180808Z 19005KT 9999 BKN004 BKN022 18/17 Q1005 YLO
Conditions at: ETNL (LAAGE , DE) observed 0808 UTC 18 August 2019
Temperature: 18.0°C (64°F)
Dewpoint: 17.0°C (63°F) [RH = 94%]
Pressure (altimeter): 29.68 inches Hg (1005.0 mb)
Winds: from the S (190 degrees) at 6 MPH (5 knots; 2.6 m/s)
Visibility: 6 or more miles (10+ km)
Ceiling: 400 feet AGL
Clouds: broken clouds at 400 feet AGL
broken clouds at 2200 feet AGL
Weather: no significant weather observed at this time

METAR text: ETNL 180746Z 20005KT 6000 -RADZ BKN006 18/17 Q1006 YLO
Conditions at: ETNL (LAAGE , DE) observed 0746 UTC 18 August 2019
Temperature: 18.0°C (64°F)
Dewpoint: 17.0°C (63°F) [RH = 94%]
Pressure (altimeter): 29.70 inches Hg (1006.0 mb)
Winds: from the SSW (200 degrees) at 6 MPH (5 knots; 2.6 m/s)
Visibility: 4 miles ( 6 km)
Ceiling: 600 feet AGL
Clouds: broken clouds at 600 feet AGL
Weather: -RA -DZ  (light rain, light drizzle)

Forecast for: ETNL (LAAGE , DE)
Text: TAF ETNL 191615Z 1917/2005 20007KT 9999 NSW SCT040 BY ETGL
Forecast period: 1700 UTC 19 August 2019 to 0500 UTC 20 August 2019
Forecast type: FROM: standard forecast or significant change
Winds: from the SSW (200 degrees) at 8 MPH (7 knots; 3.6 m/s)
Visibility: 6 or more miles 10+ km)
Ceiling: at least 12,000 feet AGL
Clouds: scattered clouds at 4000 feet AGL
Weather: NSW  (no significant weather)